Accueil
METAR-TAF:

METAR-TAF

Aéroports :

Tchita, Russie

latitude: 52-05N, longitude: 113-29E, altitude: 685 m

Observation

Le bulletin a été fait il y a 15 minutes, à 16:00 UTC
Vent 2 kt de est/nord-est
Température -24°C
Humidité 69%
Pression 1018 hPa
Visibilité 10 km ou plus

METAR: UIAA 241600Z 06001MPS 9999 NSC M24/M28 Q1018 R29/810165 NOSIG RMK QFE705/0940

Heure: 01:15 (16:15 UTC)

Prévision

Le bulletin a été fait il y a 2 heures et 15 minutes, à 14:00 UTC
Prévision valable du 24 à 15 UTC au 25 à 15 UTC
Vent 6 kt de nord
Visibilité: 3100 m
Nuages épars à une hauteur de 300 ft
brume

TAF: UIAA 241400Z 2415/2515 35003MPS 3100 BR SCT003

Observations et prévisions météorologiques de plus de 4000 aéroports (messages METAR et TAF).

Les stations disponibles sont représentées par des disques jaunes et rouges sur la carte.

Passer la souris dessus pour voir le nom de la station.

Cliquer dessus pour voir les observations et prévisions météorologiques.

Pour changer de carte: cliquez sur les boutons verts avec une croix noire pour zoomer, sur le bouton vert avec un tiret pour effectuer un zoom arrière, ou sur les flèches vertes pour les cartes adjacentes.


METAR-TAF: